EZY66 LPPT-LPMA
Flight info
| Callsign | EZY66 |
|---|---|
| Flight time | N/A |
| Altitude | 35000 |
| Route | ULVOT DCT GALPA DCT RAKUN |
| Aircraft | A20N/M-SDE2E3FGHIRWXY/LB1 |
Departure
| Time | N/A |
|---|---|
| Airport | Lisbon Humberto Delgado Airport (LPPT) |
Arrival
| Time | 2026-05-07 18:51 |
|---|---|
| Airport | Cristiano Ronaldo International Airport (LPMA) |
| Time | Latitude | Longitude | Altitude | Speed | Heading |
|---|---|---|---|---|---|
| 2026-05-07 18:22 | 34.42018 | -14.69715 | 35004 ft | 447 kts | 227° |
| 2026-05-07 18:23 | 34.39867 | -14.72458 | 34995 ft | 447 kts | 227° |
| 2026-05-07 18:23 | 34.35581 | -14.77918 | 35008 ft | 447 kts | 227° |
| 2026-05-07 18:24 | 34.31316 | -14.83342 | 34995 ft | 447 kts | 227° |
| 2026-05-07 18:24 | 34.27023 | -14.88793 | 35002 ft | 447 kts | 226° |
| 2026-05-07 18:25 | 34.22728 | -14.94239 | 35007 ft | 447 kts | 226° |
| 2026-05-07 18:25 | 34.18435 | -14.99673 | 34995 ft | 447 kts | 226° |
| 2026-05-07 18:26 | 34.14138 | -15.05104 | 34995 ft | 447 kts | 226° |
| 2026-05-07 18:26 | 34.09839 | -15.10529 | 34919 ft | 445 kts | 226° |
| 2026-05-07 18:26 | 34.07700 | -15.13224 | 34512 ft | 443 kts | 226° |
| 2026-05-07 18:27 | 34.05570 | -15.15906 | 33874 ft | 444 kts | 226° |
| 2026-05-07 18:27 | 34.03434 | -15.18594 | 33135 ft | 445 kts | 226° |
| 2026-05-07 18:27 | 34.01270 | -15.21316 | 32353 ft | 447 kts | 226° |
| 2026-05-07 18:27 | 33.99154 | -15.23974 | 31585 ft | 448 kts | 226° |
| 2026-05-07 18:28 | 33.96991 | -15.26690 | 30771 ft | 449 kts | 226° |
| 2026-05-07 18:28 | 33.94825 | -15.29406 | 30037 ft | 449 kts | 226° |
| 2026-05-07 18:28 | 33.92672 | -15.32105 | 29439 ft | 445 kts | 226° |
| 2026-05-07 18:28 | 33.90539 | -15.34777 | 28857 ft | 441 kts | 226° |
| 2026-05-07 18:29 | 33.88424 | -15.37423 | 28276 ft | 436 kts | 226° |
| 2026-05-07 18:29 | 33.86331 | -15.40040 | 27684 ft | 433 kts | 226° |
| 2026-05-07 18:29 | 33.84247 | -15.42645 | 27094 ft | 429 kts | 226° |
| 2026-05-07 18:29 | 33.82192 | -15.45211 | 26519 ft | 425 kts | 226° |
| 2026-05-07 18:30 | 33.80147 | -15.47764 | 25941 ft | 421 kts | 226° |
| 2026-05-07 18:30 | 33.78133 | -15.50275 | 25366 ft | 417 kts | 226° |
| 2026-05-07 18:30 | 33.76124 | -15.52779 | 24800 ft | 414 kts | 226° |
| 2026-05-07 18:30 | 33.74138 | -15.55253 | 24232 ft | 410 kts | 226° |
| 2026-05-07 18:31 | 33.72168 | -15.57708 | 23661 ft | 406 kts | 226° |
| 2026-05-07 18:31 | 33.70214 | -15.60139 | 23097 ft | 403 kts | 226° |
| 2026-05-07 18:31 | 33.68279 | -15.62551 | 22528 ft | 399 kts | 226° |
| 2026-05-07 18:31 | 33.66361 | -15.64944 | 21971 ft | 396 kts | 226° |
| 2026-05-07 18:32 | 33.64451 | -15.67312 | 21412 ft | 393 kts | 226° |
| 2026-05-07 18:32 | 33.62583 | -15.69623 | 20865 ft | 389 kts | 226° |
| 2026-05-07 18:32 | 33.60708 | -15.71944 | 20312 ft | 386 kts | 226° |
| 2026-05-07 18:32 | 33.58847 | -15.74248 | 19755 ft | 383 kts | 226° |
| 2026-05-07 18:33 | 33.57004 | -15.76530 | 19208 ft | 380 kts | 226° |
| 2026-05-07 18:33 | 33.55148 | -15.78763 | 18659 ft | 377 kts | 224° |
| 2026-05-07 18:33 | 33.53257 | -15.80913 | 18114 ft | 373 kts | 225° |
| 2026-05-07 18:33 | 33.51411 | -15.83093 | 17572 ft | 370 kts | 225° |
| 2026-05-07 18:34 | 33.49590 | -15.85259 | 17037 ft | 367 kts | 225° |
| 2026-05-07 18:34 | 33.47782 | -15.87401 | 16504 ft | 364 kts | 225° |
| 2026-05-07 18:34 | 33.45984 | -15.89520 | 15979 ft | 362 kts | 225° |
| 2026-05-07 18:34 | 33.44189 | -15.91627 | 15452 ft | 359 kts | 225° |
| 2026-05-07 18:35 | 33.42408 | -15.93715 | 14931 ft | 356 kts | 225° |
| 2026-05-07 18:35 | 33.40645 | -15.95775 | 14409 ft | 353 kts | 225° |
| 2026-05-07 18:35 | 33.38901 | -15.97812 | 13896 ft | 351 kts | 225° |
| 2026-05-07 18:35 | 33.37155 | -15.99850 | 13385 ft | 348 kts | 225° |
| 2026-05-07 18:36 | 33.35452 | -16.01839 | 12886 ft | 345 kts | 225° |
| 2026-05-07 18:36 | 33.33737 | -16.03840 | 12376 ft | 343 kts | 225° |
| 2026-05-07 18:36 | 33.32037 | -16.05821 | 11871 ft | 340 kts | 225° |
| 2026-05-07 18:36 | 33.30348 | -16.07786 | 11370 ft | 338 kts | 225° |
| 2026-05-07 18:37 | 33.28665 | -16.09743 | 10869 ft | 335 kts | 225° |
| 2026-05-07 18:37 | 33.27001 | -16.11675 | 10406 ft | 332 kts | 225° |
| 2026-05-07 18:37 | 33.25376 | -16.13564 | 10263 ft | 318 kts | 225° |
| 2026-05-07 18:37 | 33.23823 | -16.15367 | 10139 ft | 305 kts | 225° |
| 2026-05-07 18:38 | 33.22335 | -16.17095 | 10022 ft | 292 kts | 225° |
| 2026-05-07 18:38 | 33.20903 | -16.18758 | 9774 ft | 285 kts | 225° |
| 2026-05-07 18:38 | 33.19485 | -16.20404 | 9390 ft | 283 kts | 225° |
| 2026-05-07 18:38 | 33.18077 | -16.22037 | 9008 ft | 282 kts | 225° |
| 2026-05-07 18:39 | 33.16691 | -16.23644 | 8628 ft | 280 kts | 225° |
| 2026-05-07 18:39 | 33.15298 | -16.25258 | 8246 ft | 279 kts | 225° |
| 2026-05-07 18:39 | 33.13893 | -16.26887 | 7857 ft | 277 kts | 225° |
| 2026-05-07 18:39 | 33.12534 | -16.28462 | 7483 ft | 275 kts | 225° |
| 2026-05-07 18:40 | 33.11165 | -16.30048 | 7113 ft | 274 kts | 225° |
| 2026-05-07 18:40 | 33.09798 | -16.31631 | 6719 ft | 272 kts | 225° |
| 2026-05-07 18:40 | 33.08440 | -16.33202 | 6328 ft | 272 kts | 225° |
| 2026-05-07 18:40 | 33.07085 | -16.34767 | 5982 ft | 270 kts | 225° |
| 2026-05-07 18:41 | 33.05743 | -16.36318 | 5614 ft | 268 kts | 225° |
| 2026-05-07 18:41 | 33.04405 | -16.37863 | 5245 ft | 267 kts | 225° |
| 2026-05-07 18:41 | 33.03082 | -16.39393 | 4979 ft | 261 kts | 224° |
| 2026-05-07 18:41 | 33.01804 | -16.40866 | 4785 ft | 252 kts | 225° |
| 2026-05-07 18:42 | 33.00545 | -16.42315 | 4423 ft | 250 kts | 224° |
| 2026-05-07 18:42 | 32.99294 | -16.43759 | 4054 ft | 249 kts | 224° |
| 2026-05-07 18:42 | 32.98069 | -16.45171 | 3705 ft | 247 kts | 224° |
| 2026-05-07 18:42 | 32.96836 | -16.46591 | 3354 ft | 246 kts | 224° |
| 2026-05-07 18:43 | 32.95610 | -16.48002 | 3091 ft | 242 kts | 224° |
| 2026-05-07 18:43 | 32.94384 | -16.49414 | 3037 ft | 246 kts | 224° |
| 2026-05-07 18:43 | 32.93156 | -16.50828 | 3034 ft | 246 kts | 224° |
| 2026-05-07 18:43 | 32.91916 | -16.52232 | 3037 ft | 246 kts | 223° |
| 2026-05-07 18:44 | 32.90991 | -16.53228 | 3033 ft | 246 kts | 222° |
| 2026-05-07 18:44 | 32.89714 | -16.54573 | 3035 ft | 245 kts | 222° |
| 2026-05-07 18:44 | 32.88432 | -16.55922 | 3033 ft | 245 kts | 222° |
| 2026-05-07 18:44 | 32.87186 | -16.57239 | 3031 ft | 233 kts | 222° |
| 2026-05-07 18:45 | 32.86016 | -16.58481 | 3032 ft | 217 kts | 222° |
| 2026-05-07 18:45 | 32.84935 | -16.59637 | 3031 ft | 200 kts | 223° |
| 2026-05-07 18:45 | 32.83977 | -16.60741 | 3046 ft | 183 kts | 225° |
| 2026-05-07 18:45 | 32.83123 | -16.61766 | 3032 ft | 170 kts | 226° |
| 2026-05-07 18:46 | 32.82285 | -16.62775 | 3033 ft | 173 kts | 225° |
| 2026-05-07 18:46 | 32.81438 | -16.63786 | 3036 ft | 173 kts | 225° |
| 2026-05-07 18:46 | 32.80592 | -16.64786 | 3032 ft | 168 kts | 225° |
| 2026-05-07 18:46 | 32.79775 | -16.65749 | 3034 ft | 165 kts | 225° |
| 2026-05-07 18:47 | 32.78967 | -16.66698 | 3027 ft | 155 kts | 225° |
| 2026-05-07 18:47 | 32.78265 | -16.67520 | 3038 ft | 127 kts | 225° |
| 2026-05-07 18:47 | 32.77640 | -16.68253 | 3029 ft | 128 kts | 225° |
| 2026-05-07 18:47 | 32.77427 | -16.68504 | 2990 ft | 128 kts | 225° |
| 2026-05-07 18:48 | 32.75875 | -16.70325 | 2481 ft | 127 kts | 225° |
| 2026-05-07 18:48 | 32.75237 | -16.71050 | 2132 ft | 126 kts | 224° |
| 2026-05-07 18:48 | 32.74613 | -16.71762 | 1804 ft | 123 kts | 225° |
| 2026-05-07 18:49 | 32.74010 | -16.72480 | 1513 ft | 122 kts | 227° |
| 2026-05-07 18:49 | 32.73424 | -16.73213 | 1251 ft | 122 kts | 226° |
| 2026-05-07 18:49 | 32.72827 | -16.73920 | 987 ft | 120 kts | 226° |
| 2026-05-07 18:49 | 32.72233 | -16.74621 | 856 ft | 123 kts | 225° |
| 2026-05-07 18:50 | 32.71618 | -16.75328 | 656 ft | 123 kts | 224° |
| 2026-05-07 18:50 | 32.71005 | -16.76030 | 407 ft | 123 kts | 225° |
| 2026-05-07 18:50 | 32.70383 | -16.76753 | 216 ft | 124 kts | 224° |
| 2026-05-07 18:50 | 32.69843 | -16.77383 | 201 ft | 88 kts | 224° |
| 2026-05-07 18:51 | 32.69485 | -16.77800 | 193 ft | 51 kts | 224° |
| 2026-05-07 18:51 | 32.69340 | -16.77955 | 194 ft | 14 kts | 190° |
| 2026-05-07 18:51 | 32.69289 | -16.77888 | 192 ft | 12 kts | 93° |
| 2026-05-07 18:51 | 32.69336 | -16.77798 | 196 ft | 15 kts | 45° |
| 2026-05-07 18:52 | 32.69413 | -16.77704 | 206 ft | 10 kts | 45° |
| 2026-05-07 18:52 | 32.69417 | -16.77660 | 195 ft | 7 kts | 127° |
| 2026-05-07 18:52 | 32.69398 | -16.77639 | 197 ft | 2 kts | 139° |
| 2026-05-07 18:52 | 32.69387 | -16.77628 | 202 ft | 0 kts | 140° |